This is the latest recevied weather packets stored in our database for station/object OE-11213. If no packets are shown the sender has not sent any weather packets the latest 10 day(s).
| Time | Temp. | Humidity | Pressure | Rain* | Wind** | Luminosity | Snow |
|---|---|---|---|---|---|---|---|
| 1788246931 | 18.33° C | 76% | 1022 hPa | 0 mm | - | 471 W/m² | - |
| 1788246331 | 18.33° C | 78% | 1022.1 hPa | 0 mm | - | 428 W/m² | - |
| 1788245731 | 17.22° C | 82% | 1022.3 hPa | 0 mm | - | 276 W/m² | - |
| 1788245131 | 17.22° C | 83% | 1022.3 hPa | 0 mm | - | 305 W/m² | - |
| 1788244531 | 16.11° C | 88% | 1022.6 hPa | 0 mm | - | 174 W/m² | - |
| 1788243330 | 16.11° C | 88% | 1022.5 hPa | 0 mm | - | 254 W/m² | - |
| 1788242731 | 16.11° C | 91% | 1022.5 hPa | 0 mm | - | 174 W/m² | - |
| 1788242131 | 15.56° C | 91% | 1022.5 hPa | 0 mm | - | 94 W/m² | - |
| 1788241531 | 15° C | 92% | 1022.4 hPa | 0 mm | - | 51 W/m² | - |
| 1788240931 | 15° C | 93% | 1022.2 hPa | 0 mm | - | 36 W/m² | - |
| 1788240331 | 15° C | 94% | 1022.2 hPa | 0 mm | - | 22 W/m² | - |
| 1788239731 | 14.44° C | 95% | 1022.1 hPa | 0 mm | - | 15 W/m² | - |
| 1788239131 | 14.44° C | 95% | 1022 hPa | 0 mm | - | 15 W/m² | - |
| 1788238531 | 15° C | 94% | 1021.8 hPa | 0 mm | - | 7 W/m² | - |
| 1788237931 | 15° C | 94% | 1021.8 hPa | 0 mm | - | 0 W/m² | - |
| 1788237331 | 15° C | 94% | 1021.7 hPa | 0 mm | - | 0 W/m² | - |
| 1788236731 | 15° C | 93% | 1021.7 hPa | 0 mm | - | 0 W/m² | - |
| 1788236131 | 15° C | 94% | 1021.7 hPa | 0 mm | - | 0 W/m² | - |
| 1788222331 | 16.67° C | 99% | 1020.9 hPa | 0 mm | - | 0 W/m² | - |
| 1788221731 | 16.67° C | 99% | 1020.8 hPa | 0 mm | - | 0 W/m² | - |
| 1788220531 | 16.67° C | 98% | 1020.8 hPa | 0 mm | - | 0 W/m² | - |
| 1788219331 | 17.22° C | 94% | 1020.5 hPa | 0 mm | - | 0 W/m² | - |
| 1788215131 | 16.67° C | 98% | 1020.4 hPa | 0 mm | - | 0 W/m² | - |
| 1788214531 | 17.22° C | 94% | 1020.4 hPa | 0 mm | - | 0 W/m² | - |
| 1788212731 | 17.22° C | 92% | 1020.5 hPa | 3.3 mm | - | 0 W/m² | - |
* Rain latest hour (hover to see other rain measurements)
** Current wind speed in m/s (hover to see current wind gust speed)